Time;durP1;ratioP1;P1;durP2;ratioP2;P2;SDS_P1;SDS_P2;PMS_P1;PMS_P2;Temp;Humidity;BMP_temperature;BMP_pressure;BME280_temperature;BME280_humidity;BME280_pressure;Samples;Min_cycle;Max_cycle;Signal;HPM_P1;HPM_P2
2022/12/25 00:02:02;;;;;;;20.93;13.57;;;4.20;99.90;;;;;;5035692;28;20558;-67
2022/12/25 00:04:28;;;;;;;23.40;12.77;;;4.20;99.90;;;;;;5035081;28;20199;-67
2022/12/25 00:06:54;;;;;;;20.83;11.97;;;4.20;99.90;;;;;;5035432;28;20561;-67
2022/12/25 00:09:20;;;;;;;18.77;11.30;;;4.10;99.90;;;;;;5035366;28;20171;-66
2022/12/25 00:11:46;;;;;;;21.93;11.93;;;4.10;99.90;;;;;;5035505;28;20190;-68
2022/12/25 00:14:11;;;;;;;19.10;12.17;;;4.00;99.90;;;;;;5034863;28;20722;-64
2022/12/25 00:16:37;;;;;;;19.53;12.50;;;4.00;99.90;;;;;;5034687;28;20183;-64
2022/12/25 00:19:03;;;;;;;18.73;11.70;;;4.00;99.90;;;;;;5034815;28;20184;-65
2022/12/25 00:21:29;;;;;;;28.80;12.27;;;3.90;99.90;;;;;;5033390;28;20673;-65
2022/12/25 00:23:56;;;;;;;16.90;11.30;;;3.90;99.90;;;;;;5033927;28;20175;-65
2022/12/25 00:26:23;;;;;;;22.27;12.70;;;3.90;99.90;;;;;;5034762;28;20647;-65
2022/12/25 00:28:56;;;;;;;21.17;12.63;;;3.90;99.90;;;;;;5034998;28;20213;-65
2022/12/25 00:31:23;;;;;;;15.30;11.90;;;3.90;99.90;;;;;;5033504;28;20556;-64
2022/12/25 00:33:50;;;;;;;17.83;11.77;;;3.90;99.90;;;;;;5033301;28;20183;-65
2022/12/25 00:36:19;;;;;;;21.30;12.67;;;4.00;99.90;;;;;;5034670;28;20183;-65
2022/12/25 00:38:45;;;;;;;18.00;12.70;;;4.00;99.90;;;;;;5034522;28;20179;-65
2022/12/25 00:41:17;;;;;;;18.50;11.67;;;4.00;99.90;;;;;;5034384;28;20211;-64
2022/12/25 00:43:43;;;;;;;23.00;11.83;;;4.10;99.90;;;;;;5034709;28;20167;-65
2022/12/25 00:46:11;;;;;;;14.97;10.77;;;4.00;99.90;;;;;;5034373;28;20171;-65
2022/12/25 00:48:37;;;;;;;20.67;12.07;;;4.10;99.90;;;;;;5034188;28;20175;-65
2022/12/25 00:51:06;;;;;;;24.03;13.30;;;4.10;99.90;;;;;;5033025;28;20182;-64
2022/12/25 00:53:32;;;;;;;22.03;12.80;;;4.10;99.90;;;;;;5034535;28;20351;-65
2022/12/25 00:56:03;;;;;;;22.17;11.90;;;4.20;99.90;;;;;;5033820;28;20329;-64
2022/12/25 00:58:30;;;;;;;22.87;12.83;;;4.20;99.90;;;;;;5032794;28;20624;-64
2022/12/25 01:00:56;;;;;;;23.50;12.33;;;4.20;99.90;;;;;;5033951;28;20302;-64
2022/12/25 01:03:22;;;;;;;22.20;12.13;;;4.30;99.90;;;;;;5033852;28;20302;-64
2022/12/25 01:06:00;;;;;;;13.67;10.77;;;4.30;99.90;;;;;;5033937;28;20195;-65
2022/12/25 01:08:27;;;;;;;19.30;12.03;;;4.40;99.90;;;;;;5034120;28;20269;-64
2022/12/25 01:11:01;;;;;;;16.70;11.60;;;4.40;99.90;;;;;;5032706;28;20575;-65
2022/12/25 01:13:28;;;;;;;24.97;12.37;;;4.50;99.90;;;;;;5034193;28;20167;-65
2022/12/25 01:15:53;;;;;;;18.07;11.80;;;4.50;99.90;;;;;;5033720;28;20214;-65
2022/12/25 01:18:21;;;;;;;22.70;11.90;;;4.50;99.90;;;;;;5033880;28;20187;-65
2022/12/25 01:20:47;;;;;;;21.43;10.90;;;4.60;99.90;;;;;;5033692;28;20203;-64
2022/12/25 01:23:13;;;;;;;23.23;11.10;;;4.70;99.90;;;;;;5033728;28;20237;-65
2022/12/25 01:25:39;;;;;;;19.80;10.97;;;4.70;99.90;;;;;;5033658;28;20270;-65
2022/12/25 01:28:05;;;;;;;17.37;11.87;;;4.80;99.90;;;;;;5033561;28;20204;-65
2022/12/25 01:30:31;;;;;;;20.20;11.10;;;4.80;99.90;;;;;;5060247;28;20646;-65
2022/12/25 01:32:57;;;;;;;20.10;10.97;;;4.70;99.90;;;;;;5073452;28;20190;-65
2022/12/25 01:35:23;;;;;;;21.73;11.33;;;4.70;99.90;;;;;;5073118;28;20312;-65
2022/12/25 01:37:50;;;;;;;17.37;11.20;;;4.70;99.90;;;;;;5089706;28;20192;-65
2022/12/25 01:40:16;;;;;;;18.30;11.63;;;4.70;99.90;;;;;;5087824;28;20266;-65
2022/12/25 01:42:42;;;;;;;21.33;12.20;;;4.70;99.90;;;;;;5082298;28;20193;-65
2022/12/25 01:45:30;;;;;;;18.90;11.83;;;4.70;99.90;;;;;;5090062;28;20641;-64
2022/12/25 01:47:56;;;;;;;21.27;12.10;;;4.80;99.90;;;;;;5040958;28;20194;-65
2022/12/25 01:50:22;;;;;;;17.57;10.50;;;4.80;99.90;;;;;;5030407;28;20227;-65
2022/12/25 01:52:49;;;;;;;16.80;11.07;;;4.90;99.90;;;;;;4999530;28;20234;-65
2022/12/25 01:56:42;;;;;;;20.20;11.97;;;4.90;99.90;;;;;;5151500;27;20516;-65
2022/12/25 01:59:10;;;;;;;19.73;10.53;;;4.90;99.90;;;;;;5146572;27;20183;-65
2022/12/25 02:01:36;;;;;;;16.50;9.87;;;5.00;99.90;;;;;;5134780;27;20199;-65
2022/12/25 02:04:12;;;;;;;15.30;10.20;;;5.10;99.90;;;;;;5126290;28;20208;-65
2022/12/25 02:06:38;;;;;;;13.60;9.57;;;5.10;99.90;;;;;;5098533;28;20185;-65
2022/12/25 02:09:04;;;;;;;17.63;10.33;;;5.10;99.90;;;;;;5104127;28;20305;-65
2022/12/25 02:14:14;;;;;;;17.80;10.13;;;5.20;99.90;;;;;;5081814;28;20270;-65
2022/12/25 02:16:42;;;;;;;15.57;9.73;;;5.20;99.90;;;;;;5062031;28;20190;-65
2022/12/25 02:22:39;;;;;;;18.27;8.90;;;5.30;99.90;;;;;;5151671;27;20524;-64
2022/12/25 02:25:10;;;;;;;16.20;8.77;;;5.40;99.90;;;;;;5036182;28;20315;-65
2022/12/25 02:27:59;;;;;;;15.97;9.67;;;5.50;99.90;;;;;;5068979;28;20554;-65
2022/12/25 02:30:26;;;;;;;15.27;8.87;;;5.50;99.90;;;;;;5058756;28;20577;-65
2022/12/25 02:34:01;;;;;;;14.63;9.80;;;5.50;99.90;;;;;;5044042;28;20206;-65
2022/12/25 02:35:49;;;;;;;14.03;9.70;;;5.50;99.90;;;;;;5000344;28;20218;-65
2022/12/25 02:38:24;;;;;;;17.50;10.63;;;5.50;99.90;;;;;;5017205;28;20262;-65
2022/12/25 02:40:57;;;;;;;17.47;9.37;;;5.60;99.90;;;;;;4940998;29;20224;-65
2022/12/25 03:12:00;;;;;;;13.53;9.17;;;5.70;99.90;;;;;;5128902;27;20209;-64
2022/12/25 03:17:11;;;;;;;15.33;9.43;;;5.70;99.90;;;;;;5058174;28;20196;-65
2022/12/25 03:28:03;;;;;;;11.90;9.00;;;5.80;99.90;;;;;;5111469;28;20635;-64
2022/12/25 03:35:21;;;;;;;16.30;9.73;;;5.80;99.90;;;;;;5111408;28;20849;-64
2022/12/25 04:37:59;;;;;;;9.70;7.20;;;6.40;99.90;;;;;;5096466;28;20696;-65
2022/12/25 04:40:24;;;;;;;10.70;7.83;;;6.40;99.90;;;;;;5095031;28;20283;-66
2022/12/25 04:42:51;;;;;;;13.07;7.10;;;6.40;99.90;;;;;;5096746;28;20177;-66
2022/12/25 04:45:17;;;;;;;10.20;7.90;;;6.40;99.90;;;;;;5097322;28;20189;-65
2022/12/25 04:47:42;;;;;;;11.30;7.47;;;6.40;99.90;;;;;;5097103;28;20196;-66
2022/12/25 04:50:08;;;;;;;12.43;7.53;;;6.40;99.90;;;;;;5095602;28;20173;-65
2022/12/25 04:52:36;;;;;;;10.10;7.50;;;6.40;99.90;;;;;;5096481;28;20215;-65
2022/12/25 04:55:03;;;;;;;9.40;7.10;;;6.40;99.90;;;;;;5096460;28;20185;-65
2022/12/25 04:57:28;;;;;;;12.70;7.83;;;6.40;99.90;;;;;;5096221;28;20245;-65
2022/12/25 04:59:54;;;;;;;11.30;7.10;;;6.40;99.90;;;;;;5096096;28;20668;-65
2022/12/25 05:02:20;;;;;;;8.90;7.13;;;6.40;99.90;;;;;;5096635;28;20216;-66
2022/12/25 05:04:46;;;;;;;9.80;6.77;;;6.40;99.90;;;;;;5095773;28;20227;-65
2022/12/25 05:07:11;;;;;;;8.77;6.93;;;6.40;99.90;;;;;;5096354;28;20173;-67
2022/12/25 05:09:40;;;;;;;11.97;8.17;;;6.40;99.90;;;;;;5096101;28;20642;-65
2022/12/25 05:12:07;;;;;;;7.83;6.97;;;6.40;99.90;;;;;;5095852;28;20166;-66
2022/12/25 05:14:33;;;;;;;10.47;7.20;;;6.40;99.90;;;;;;5095648;28;20690;-65
2022/12/25 05:16:58;;;;;;;11.93;7.10;;;6.40;99.90;;;;;;5095574;28;20188;-66
2022/12/25 05:19:25;;;;;;;8.17;6.57;;;6.40;99.90;;;;;;5095652;28;20369;-66
2022/12/25 05:21:52;;;;;;;11.30;6.87;;;6.40;99.90;;;;;;5095483;28;20200;-66
2022/12/25 05:24:18;;;;;;;9.10;7.07;;;6.40;99.90;;;;;;5095733;28;20201;-65
2022/12/25 05:26:44;;;;;;;10.03;7.23;;;6.40;99.90;;;;;;5095507;28;20177;-65
2022/12/25 05:29:09;;;;;;;13.27;6.90;;;6.40;99.90;;;;;;5095661;28;20529;-65
2022/12/25 05:31:35;;;;;;;8.70;6.70;;;6.40;99.90;;;;;;5095441;28;20269;-65
2022/12/25 05:34:01;;;;;;;12.87;7.27;;;6.30;99.90;;;;;;5095099;28;20550;-66
2022/12/25 05:36:27;;;;;;;9.43;7.03;;;6.30;99.90;;;;;;5095586;28;20169;-65
2022/12/25 05:38:53;;;;;;;13.23;7.43;;;6.30;99.90;;;;;;5095281;28;20177;-65
2022/12/25 05:41:19;;;;;;;13.87;7.43;;;6.30;99.90;;;;;;5095382;28;20196;-65
2022/12/25 05:43:44;;;;;;;8.97;6.87;;;6.30;99.90;;;;;;5094515;28;20622;-65
2022/12/25 05:46:11;;;;;;;13.97;6.93;;;6.30;99.90;;;;;;5094908;28;20200;-65
2022/12/25 05:48:37;;;;;;;8.00;6.73;;;6.40;99.90;;;;;;5094961;28;20264;-65
2022/12/25 05:51:05;;;;;;;11.00;7.43;;;6.30;99.90;;;;;;5094887;28;20260;-65
2022/12/25 05:53:31;;;;;;;7.23;6.47;;;6.40;99.90;;;;;;5095121;28;20180;-66
2022/12/25 05:56:01;;;;;;;10.70;7.07;;;6.40;99.90;;;;;;5094894;28;20279;-65
2022/12/25 05:58:27;;;;;;;10.10;6.53;;;6.30;99.90;;;;;;5094710;28;20189;-66
2022/12/25 06:00:52;;;;;;;9.33;6.43;;;6.40;99.90;;;;;;5094595;28;20236;-66
2022/12/25 06:03:18;;;;;;;12.97;6.37;;;6.40;99.90;;;;;;5094659;28;20602;-66
2022/12/25 06:05:44;;;;;;;9.77;6.33;;;6.40;99.90;;;;;;5094729;28;20189;-66
2022/12/25 06:08:09;;;;;;;10.53;6.20;;;6.40;99.90;;;;;;5094831;28;20180;-65
2022/12/25 06:10:35;;;;;;;7.53;6.40;;;6.40;99.90;;;;;;5095257;28;20252;-65
2022/12/25 06:13:02;;;;;;;8.17;6.40;;;6.40;99.90;;;;;;5094849;28;20648;-65
2022/12/25 06:15:28;;;;;;;10.67;6.23;;;6.40;99.90;;;;;;5094539;28;20275;-66
2022/12/25 06:17:54;;;;;;;9.53;6.13;;;6.40;99.90;;;;;;5094679;28;20663;-67
2022/12/25 06:20:20;;;;;;;9.77;5.90;;;6.50;99.90;;;;;;5094230;28;20173;-68
2022/12/25 06:22:46;;;;;;;7.80;6.00;;;6.60;99.90;;;;;;5094678;28;20162;-67
2022/12/25 06:25:12;;;;;;;10.23;6.83;;;6.60;99.90;;;;;;5094368;28;20284;-68
2022/12/25 06:27:37;;;;;;;9.40;6.30;;;6.50;99.90;;;;;;5094477;28;20180;-66
2022/12/25 06:30:04;;;;;;;6.43;5.83;;;6.50;99.90;;;;;;5094942;28;20165;-65
2022/12/25 06:32:30;;;;;;;8.30;6.27;;;6.40;99.90;;;;;;5094736;28;20169;-64
2022/12/25 06:34:55;;;;;;;10.27;5.90;;;6.40;99.90;;;;;;5092786;28;20197;-64
2022/12/25 06:37:21;;;;;;;7.83;5.00;;;6.60;99.90;;;;;;5094639;28;20556;-66
2022/12/25 06:39:47;;;;;;;8.53;5.50;;;6.70;99.90;;;;;;5094106;28;20177;-65
2022/12/25 06:42:13;;;;;;;6.30;5.00;;;6.70;99.90;;;;;;5092638;28;20204;-65
2022/12/25 06:44:38;;;;;;;6.13;5.53;;;6.90;99.90;;;;;;5093945;28;20192;-65
2022/12/25 06:47:04;;;;;;;8.47;5.40;;;7.00;99.90;;;;;;5092664;28;20183;-65
2022/12/25 06:49:30;;;;;;;6.77;5.07;;;7.10;99.90;;;;;;5093894;28;20176;-65
2022/12/25 06:51:56;;;;;;;10.87;5.73;;;7.10;99.90;;;;;;5093869;28;20200;-66
2022/12/25 06:54:22;;;;;;;8.90;5.30;;;7.20;99.90;;;;;;5093928;28;20197;-65
2022/12/25 06:56:48;;;;;;;7.60;5.53;;;7.40;99.90;;;;;;5092192;28;20217;-65
2022/12/25 06:59:14;;;;;;;9.37;5.73;;;7.50;99.90;;;;;;5093966;28;20192;-65
2022/12/25 07:01:48;;;;;;;12.27;5.30;;;7.50;99.90;;;;;;5093576;28;20209;-65
2022/12/25 07:04:37;;;;;;;9.83;5.70;;;7.60;99.90;;;;;;5092215;28;20196;-65
2022/12/25 07:07:05;;;;;;;7.70;4.97;;;7.70;99.90;;;;;;5093983;28;20202;-65
2022/12/25 07:09:31;;;;;;;5.47;4.93;;;7.60;99.90;;;;;;5093820;28;20291;-65
2022/12/25 07:12:12;;;;;;;5.93;4.90;;;7.50;99.90;;;;;;5094361;28;20197;-65
2022/12/25 07:14:38;;;;;;;7.87;5.30;;;7.40;99.90;;;;;;5093542;28;20200;-65
2022/12/25 07:17:04;;;;;;;5.93;5.37;;;7.30;99.90;;;;;;5092550;28;20173;-67
2022/12/25 07:19:30;;;;;;;6.60;5.47;;;7.20;99.90;;;;;;5093333;28;20196;-66
2022/12/25 07:21:55;;;;;;;5.47;4.97;;;7.10;99.90;;;;;;5093848;28;20220;-66
2022/12/25 07:24:22;;;;;;;6.43;5.77;;;7.00;99.90;;;;;;5094868;28;20197;-66
2022/12/25 07:26:49;;;;;;;6.27;5.70;;;6.90;99.90;;;;;;5094223;28;20165;-66
2022/12/25 07:29:16;;;;;;;6.93;5.80;;;6.90;99.90;;;;;;5094225;28;20168;-66
2022/12/25 07:31:42;;;;;;;8.67;5.60;;;6.80;99.90;;;;;;5092619;28;20234;-66
2022/12/25 07:34:08;;;;;;;6.83;5.30;;;6.70;99.90;;;;;;5092208;28;20201;-66
2022/12/25 07:36:33;;;;;;;10.00;5.53;;;6.60;99.90;;;;;;5093699;28;20172;-66
2022/12/25 07:38:59;;;;;;;7.87;5.87;;;6.60;99.90;;;;;;5093572;28;20177;-65
2022/12/25 07:41:25;;;;;;;6.50;5.30;;;6.50;99.90;;;;;;5093833;28;20196;-66
2022/12/25 07:43:52;;;;;;;6.97;5.53;;;6.50;99.90;;;;;;5093739;28;20158;-65
2022/12/25 07:46:19;;;;;;;5.83;5.23;;;6.50;99.90;;;;;;5093615;28;20517;-65
2022/12/25 07:48:44;;;;;;;6.53;5.03;;;6.50;99.90;;;;;;5093022;28;20169;-65
2022/12/25 07:51:12;;;;;;;5.70;5.20;;;6.50;99.90;;;;;;5093495;28;20241;-65
2022/12/25 07:53:39;;;;;;;6.23;5.33;;;6.50;99.90;;;;;;5093123;28;20533;-65
2022/12/25 07:56:30;;;;;;;9.43;5.87;;;6.50;99.90;;;;;;5093045;28;20196;-65
2022/12/25 07:58:58;;;;;;;6.33;5.10;;;6.60;99.90;;;;;;5055934;23;20235;-81
2022/12/25 08:01:25;;;;;;;6.70;5.70;;;6.60;99.90;;;;;;5036574;28;20225;-79
2022/12/25 08:03:59;;;;;;;7.80;5.33;;;6.70;99.90;;;;;;5041977;28;20214;-81
2022/12/25 08:06:31;;;;;;;7.07;6.00;;;6.80;99.90;;;;;;5055122;28;20207;-79
2022/12/25 08:09:09;;;;;;;9.20;5.67;;;6.80;99.90;;;;;;5059438;28;20151;-79
2022/12/25 08:11:35;;;;;;;7.17;6.03;;;6.80;99.90;;;;;;5058414;28;20174;-79
2022/12/25 08:14:04;;;;;;;7.83;6.97;;;6.90;99.90;;;;;;5058469;28;20675;-79
2022/12/25 08:16:30;;;;;;;8.27;7.13;;;6.90;99.90;;;;;;5058579;28;20202;-79
2022/12/25 08:18:56;;;;;;;13.07;10.00;;;6.90;99.90;;;;;;5058249;28;20181;-79
2022/12/25 08:21:21;;;;;;;10.70;9.00;;;7.00;99.90;;;;;;5058559;28;20259;-79
2022/12/25 08:23:47;;;;;;;10.03;7.17;;;7.10;99.90;;;;;;5058398;28;20265;-79
2022/12/25 08:26:17;;;;;;;8.93;7.30;;;7.10;99.90;;;;;;5058116;28;20674;-79
2022/12/25 08:28:43;;;;;;;10.13;7.63;;;7.10;99.90;;;;;;5058313;28;20228;-79
2022/12/25 08:31:22;;;;;;;9.17;7.37;;;7.20;99.90;;;;;;5058252;28;20185;-79
2022/12/25 08:33:50;;;;;;;7.60;6.80;;;7.20;99.90;;;;;;5058260;28;20201;-79
2022/12/25 08:36:17;;;;;;;11.30;6.20;;;7.20;99.90;;;;;;5057319;28;20178;-79
2022/12/25 08:38:42;;;;;;;7.40;5.53;;;7.20;99.90;;;;;;5057862;28;20195;-79
2022/12/25 08:41:11;;;;;;;8.30;5.63;;;7.30;99.90;;;;;;5058729;28;20285;-79
2022/12/25 08:43:37;;;;;;;10.30;5.93;;;7.30;99.90;;;;;;5057351;28;20202;-79
2022/12/25 08:46:10;;;;;;;9.67;5.80;;;7.40;99.90;;;;;;5058767;28;20170;-79
2022/12/25 08:48:41;;;;;;;8.43;5.90;;;7.40;99.90;;;;;;5057448;28;20683;-79
2022/12/25 08:51:13;;;;;;;8.77;6.17;;;7.50;99.90;;;;;;5057193;28;20178;-79
2022/12/25 08:53:43;;;;;;;8.87;5.77;;;7.60;99.90;;;;;;5057380;28;20210;-79
2022/12/25 08:56:11;;;;;;;9.77;6.47;;;7.70;99.90;;;;;;5057902;28;20538;-79
2022/12/25 08:58:37;;;;;;;8.67;5.90;;;7.90;99.90;;;;;;5057447;28;20724;-79
2022/12/25 09:01:03;;;;;;;10.60;6.50;;;8.00;99.90;;;;;;5073208;28;20302;-80
2022/12/25 09:03:31;;;;;;;10.57;6.50;;;8.00;99.90;;;;;;5058203;28;20841;-79
2022/12/25 09:06:05;;;;;;;9.57;6.70;;;8.10;99.90;;;;;;5096570;28;20194;-79
2022/12/25 09:08:31;;;;;;;8.07;6.93;;;8.20;99.90;;;;;;5003760;28;20199;-79
2022/12/25 09:11:04;;;;;;;8.77;6.33;;;8.40;99.90;;;;;;5018805;28;20164;-79
2022/12/25 09:13:30;;;;;;;9.07;5.97;;;8.70;99.90;;;;;;5001203;28;20266;-79
2022/12/25 09:15:56;;;;;;;11.80;6.43;;;8.70;99.90;;;;;;5001037;28;20172;-79
2022/12/25 09:18:22;;;;;;;9.10;5.83;;;8.70;99.90;;;;;;5018983;28;20184;-79
2022/12/25 09:21:00;;;;;;;14.10;6.37;;;8.70;99.90;;;;;;5018277;28;20218;-79
2022/12/25 09:23:26;;;;;;;9.03;6.17;;;8.70;99.90;;;;;;5018753;28;20168;-79
2022/12/25 09:25:52;;;;;;;9.10;6.50;;;8.90;99.90;;;;;;5000446;28;20301;-79
2022/12/25 09:28:18;;;;;;;10.53;5.97;;;8.90;99.90;;;;;;5000562;28;20191;-79
2022/12/25 09:30:44;;;;;;;8.47;5.77;;;8.80;99.90;;;;;;5000294;28;20199;-79
2022/12/25 09:33:10;;;;;;;9.00;5.57;;;8.80;99.90;;;;;;5001156;28;20186;-80
2022/12/25 09:35:36;;;;;;;7.20;5.67;;;8.80;99.90;;;;;;5000127;28;20192;-79
2022/12/25 09:38:01;;;;;;;7.73;5.53;;;8.80;99.90;;;;;;5017159;28;20176;-79
2022/12/25 09:40:29;;;;;;;6.27;5.30;;;8.70;99.90;;;;;;5017882;28;20202;-79
2022/12/25 09:42:57;;;;;;;7.53;5.53;;;8.70;99.90;;;;;;5001243;28;20180;-79
2022/12/25 09:45:35;;;;;;;8.33;5.20;;;8.70;99.90;;;;;;5018161;28;20203;-79
2022/12/25 09:48:01;;;;;;;10.53;5.40;;;8.60;99.90;;;;;;5000520;28;20184;-81
2022/12/25 09:50:47;;;;;;;7.50;5.60;;;8.70;99.90;;;;;;5018189;28;20180;-79
2022/12/25 09:53:23;;;;;;;5.90;5.10;;;8.60;99.90;;;;;;5005018;28;20179;-83
2022/12/25 09:56:03;;;;;;;8.03;5.10;;;8.60;99.90;;;;;;5002712;28;20270;-82
2022/12/25 09:58:30;;;;;;;8.27;5.63;;;8.60;99.90;;;;;;5001458;28;20175;-79
2022/12/25 10:01:20;;;;;;;7.03;5.23;;;8.60;99.90;;;;;;5000610;28;20203;-79
2022/12/25 10:04:04;;;;;;;7.50;5.77;;;8.60;99.90;;;;;;5001465;28;20200;-80
2022/12/25 10:07:05;;;;;;;5.70;5.20;;;8.60;99.90;;;;;;5007561;28;20191;-81
2022/12/25 10:10:17;;;;;;;6.40;5.07;;;8.70;99.90;;;;;;5059062;28;20178;-80
2022/12/25 10:13:16;;;;;;;7.63;5.53;;;8.60;99.90;;;;;;5019669;28;20228;-80
2022/12/25 10:16:14;;;;;;;9.53;5.43;;;8.60;99.90;;;;;;5057127;28;20639;-80
2022/12/25 10:19:00;;;;;;;5.70;5.20;;;8.60;99.90;;;;;;5037222;28;20657;-80
2022/12/25 10:21:26;;;;;;;8.87;6.10;;;8.60;99.90;;;;;;5056233;28;20198;-80
2022/12/25 10:24:24;;;;;;;5.90;5.30;;;8.50;99.90;;;;;;5055573;28;20195;-79
2022/12/25 10:26:53;;;;;;;7.17;5.70;;;8.50;99.90;;;;;;5034892;28;20214;-80
2022/12/25 10:29:19;;;;;;;9.00;7.07;;;8.50;99.90;;;;;;5057170;28;20213;-80
2022/12/25 10:31:47;;;;;;;10.03;6.87;;;8.50;99.90;;;;;;5056483;28;20182;-80
2022/12/25 10:34:14;;;;;;;9.63;6.80;;;8.50;99.90;;;;;;5056793;28;20237;-81
2022/12/25 10:36:42;;;;;;;7.07;6.30;;;8.50;99.90;;;;;;5059122;28;20179;-79
2022/12/25 10:39:17;;;;;;;7.73;6.17;;;8.50;99.90;;;;;;5058435;28;20196;-79
2022/12/25 10:41:59;;;;;;;6.60;5.90;;;8.50;99.90;;;;;;5057011;28;20201;-79
2022/12/25 10:44:25;;;;;;;7.27;6.20;;;8.60;99.90;;;;;;5056373;28;20813;-79
2022/12/25 10:46:54;;;;;;;9.17;6.87;;;8.60;99.90;;;;;;5055902;28;20205;-79
2022/12/25 10:49:22;;;;;;;7.13;6.43;;;8.60;99.90;;;;;;5055916;28;20265;-80
2022/12/25 10:51:49;;;;;;;9.50;6.47;;;8.60;99.90;;;;;;5056712;28;20188;-79
2022/12/25 10:54:34;;;;;;;6.97;5.00;;;8.70;99.90;;;;;;5055648;28;20193;-79
2022/12/25 10:57:07;;;;;;;4.90;4.40;;;8.80;99.90;;;;;;5056871;28;20587;-79
2022/12/25 10:59:48;;;;;;;6.77;4.87;;;8.90;99.90;;;;;;5056668;28;20224;-79
2022/12/25 11:02:18;;;;;;;5.20;4.80;;;8.90;99.90;;;;;;5064138;28;20190;-80
2022/12/25 11:04:44;;;;;;;5.00;4.50;;;8.90;99.90;;;;;;5061011;28;20537;-79
2022/12/25 11:07:19;;;;;;;7.97;4.60;;;8.90;99.90;;;;;;5058000;28;20198;-79
2022/12/25 11:09:50;;;;;;;8.60;5.30;;;8.90;99.90;;;;;;5057856;28;20609;-79
2022/12/25 11:12:19;;;;;;;8.57;5.50;;;8.90;99.90;;;;;;5056925;28;20590;-79
2022/12/25 11:15:04;;;;;;;6.83;4.90;;;8.90;99.90;;;;;;5056805;28;20607;-79
2022/12/25 11:17:29;;;;;;;5.90;5.10;;;8.90;99.90;;;;;;5056163;28;20175;-79
2022/12/25 11:20:00;;;;;;;4.90;4.50;;;8.80;99.90;;;;;;5056306;28;20647;-79
2022/12/25 11:22:27;;;;;;;6.33;4.83;;;8.80;99.90;;;;;;5055732;28;20682;-79
2022/12/25 11:24:53;;;;;;;5.50;5.00;;;8.80;99.90;;;;;;5055307;28;20533;-79
2022/12/25 11:27:29;;;;;;;5.63;5.10;;;8.80;99.90;;;;;;5054979;28;20179;-79
2022/12/25 11:30:02;;;;;;;5.90;5.40;;;8.90;99.90;;;;;;5055720;28;20172;-79
2022/12/25 11:32:36;;;;;;;9.00;8.20;;;8.90;99.90;;;;;;5055391;28;20186;-79
2022/12/25 11:35:04;;;;;;;8.93;8.23;;;8.90;99.90;;;;;;5055879;28;20224;-79
2022/12/25 11:37:38;;;;;;;7.50;6.80;;;9.00;99.90;;;;;;5055400;28;20182;-79
2022/12/25 11:40:05;;;;;;;7.17;6.47;;;9.10;99.90;;;;;;5056046;28;20185;-79
2022/12/25 11:42:38;;;;;;;5.90;4.60;;;9.00;99.90;;;;;;5056237;28;20206;-79
2022/12/25 11:45:13;;;;;;;5.40;4.80;;;9.00;99.90;;;;;;5059710;28;20194;-79
2022/12/25 11:48:14;;;;;;;5.20;4.80;;;9.00;99.90;;;;;;5059457;28;20201;-79
2022/12/25 11:50:45;;;;;;;5.40;4.90;;;9.00;99.90;;;;;;5050649;28;20184;-79
2022/12/25 11:53:20;;;;;;;5.00;4.33;;;9.00;99.90;;;;;;5058431;28;20189;-79
2022/12/25 11:55:55;;;;;;;5.37;4.77;;;8.90;99.90;;;;;;5060409;28;20159;-79
2022/12/25 11:58:30;;;;;;;4.47;4.17;;;8.90;99.90;;;;;;5058249;28;20179;-79
2022/12/25 12:00:59;;;;;;;4.60;4.27;;;8.90;99.90;;;;;;5059258;28;20249;-79
2022/12/25 12:03:51;;;;;;;5.57;4.20;;;8.90;99.90;;;;;;5058059;28;20274;-79
2022/12/25 12:06:37;;;;;;;6.20;4.70;;;8.90;99.90;;;;;;5055240;28;20182;-78
2022/12/25 12:09:27;;;;;;;4.83;4.40;;;8.90;99.90;;;;;;5058037;28;20186;-78
2022/12/25 12:12:10;;;;;;;5.07;4.30;;;9.00;99.90;;;;;;5057858;28;20606;-78
2022/12/25 12:15:02;;;;;;;4.83;4.30;;;9.00;99.90;;;;;;5059210;28;20260;-79
2022/12/25 12:17:28;;;;;;;3.80;3.60;;;9.00;99.90;;;;;;5057706;28;20209;-79
2022/12/25 12:19:54;;;;;;;4.43;4.03;;;9.00;99.90;;;;;;5060155;28;20174;-78
2022/12/25 12:22:25;;;;;;;4.60;4.23;;;9.00;99.90;;;;;;5057468;28;20209;-78
2022/12/25 12:25:15;;;;;;;4.20;3.90;;;9.00;99.90;;;;;;5057565;28;20194;-79
2022/12/25 12:27:43;;;;;;;5.23;4.30;;;9.10;99.90;;;;;;5057774;28;20171;-79
2022/12/25 12:30:35;;;;;;;4.60;4.20;;;9.10;99.90;;;;;;5057973;28;20520;-79
2022/12/25 12:33:06;;;;;;;4.40;4.10;;;9.00;99.90;;;;;;5054262;28;20222;-79
2022/12/25 12:35:37;;;;;;;4.83;4.50;;;9.10;99.90;;;;;;5059119;28;20210;-79
2022/12/25 12:38:12;;;;;;;5.30;4.70;;;9.10;99.90;;;;;;5059180;28;20224;-79
2022/12/25 12:41:01;;;;;;;4.80;4.30;;;9.20;99.90;;;;;;5057635;28;20177;-79
2022/12/25 12:43:51;;;;;;;4.53;4.13;;;9.20;99.90;;;;;;5046256;28;20289;-79
2022/12/25 12:46:44;;;;;;;4.50;4.20;;;9.10;99.90;;;;;;5059109;28;20249;-84
2022/12/25 12:49:27;;;;;;;6.63;4.90;;;9.10;99.90;;;;;;5058189;28;20179;-82
2022/12/25 12:52:25;;;;;;;7.40;6.43;;;9.10;99.90;;;;;;5058836;28;20179;-84
2022/12/25 12:55:02;;;;;;;5.70;5.10;;;9.00;99.90;;;;;;5058763;28;20207;-84
2022/12/25 12:57:33;;;;;;;4.37;3.97;;;9.10;99.90;;;;;;5058347;28;20247;-85
2022/12/25 13:00:00;;;;;;;4.80;4.40;;;9.20;99.90;;;;;;5057733;28;20197;-82
2022/12/25 13:02:44;;;;;;;5.70;5.20;;;9.20;99.90;;;;;;5059992;28;20214;-82
2022/12/25 13:05:32;;;;;;;5.33;4.83;;;9.30;99.90;;;;;;5060197;28;20198;-84
2022/12/25 13:08:23;;;;;;;17.37;10.37;;;9.30;99.90;;;;;;5057927;28;20221;-81
2022/12/25 13:11:03;;;;;;;5.90;5.30;;;9.30;99.90;;;;;;5028528;28;20194;-82
2022/12/25 13:13:38;;;;;;;11.03;7.40;;;9.30;99.90;;;;;;5059928;28;20189;-83
2022/12/25 13:16:05;;;;;;;12.53;7.97;;;9.30;99.90;;;;;;5059604;28;20178;-82
2022/12/25 13:18:32;;;;;;;14.40;9.43;;;9.30;99.90;;;;;;5061327;28;20190;-82
2022/12/25 13:21:04;;;;;;;10.13;8.07;;;9.30;99.90;;;;;;5059239;28;20226;-82
2022/12/25 13:23:31;;;;;;;9.53;7.30;;;9.30;99.90;;;;;;5058825;28;20179;-81
2022/12/25 13:26:17;;;;;;;12.20;8.17;;;9.20;99.90;;;;;;5058213;28;20189;-81
2022/12/25 13:28:48;;;;;;;12.77;8.10;;;9.20;99.90;;;;;;5058739;28;20212;-83
2022/12/25 13:31:23;;;;;;;9.73;7.53;;;9.20;99.90;;;;;;5058337;28;20232;-82
2022/12/25 13:34:00;;;;;;;7.30;6.43;;;9.20;99.90;;;;;;5058320;28;20210;-83
2022/12/25 13:36:28;;;;;;;10.43;8.20;;;9.20;99.90;;;;;;5059995;28;20283;-81
2022/12/25 13:38:56;;;;;;;11.53;8.13;;;9.20;99.90;;;;;;5058695;28;20179;-81
2022/12/25 13:44:19;;;;;;;12.67;8.57;;;9.20;99.90;;;;;;5059932;28;20286;-82
2022/12/25 13:46:46;;;;;;;12.63;8.75;;;9.20;99.90;;;;;;5056691;28;20204;-81
2022/12/25 13:49:17;;;;;;;10.57;8.03;;;9.20;99.90;;;;;;5057832;28;20186;-81
2022/12/25 13:51:43;;;;;;;10.73;8.00;;;9.20;99.90;;;;;;5057234;28;20187;-81
2022/12/25 13:54:14;;;;;;;11.18;8.07;;;9.20;99.90;;;;;;5056525;28;20206;-80
2022/12/25 13:56:52;;;;;;;11.63;8.20;;;9.20;99.90;;;;;;5056679;28;20225;-80
2022/12/25 13:59:20;;;;;;;10.73;7.67;;;9.20;99.90;;;;;;5057412;28;20194;-80
2022/12/25 14:01:47;;;;;;;9.97;7.67;;;9.10;99.90;;;;;;5057244;28;20690;-81
2022/12/25 14:04:21;;;;;;;10.30;7.87;;;9.10;99.90;;;;;;5057922;28;20202;-83
2022/12/25 14:06:48;;;;;;;13.10;9.67;;;9.10;99.90;;;;;;5057981;28;20181;-83
2022/12/25 14:09:14;;;;;;;10.27;8.30;;;9.20;99.90;;;;;;5059866;28;20246;-83
2022/12/25 14:11:47;;;;;;;11.53;8.60;;;9.20;99.90;;;;;;5059865;28;20179;-82
2022/12/25 14:14:23;;;;;;;14.37;9.83;;;9.20;99.90;;;;;;5060284;28;20245;-81
2022/12/25 14:16:53;;;;;;;16.87;9.87;;;9.30;99.90;;;;;;5062044;28;20178;-81
2022/12/25 14:19:33;;;;;;;14.13;10.00;;;9.30;99.90;;;;;;5061155;28;20174;-82
2022/12/25 14:22:04;;;;;;;15.10;10.07;;;9.40;99.90;;;;;;5062782;28;20210;-82
2022/12/25 14:24:32;;;;;;;18.83;9.93;;;9.50;99.90;;;;;;5062037;28;20205;-82
2022/12/25 14:27:13;;;;;;;16.07;10.47;;;9.50;99.90;;;;;;5065031;28;20178;-82
2022/12/25 14:29:44;;;;;;;19.43;10.93;;;9.60;99.90;;;;;;5061537;28;20179;-82
2022/12/25 14:32:17;;;;;;;18.40;11.47;;;9.60;99.90;;;;;;5061413;28;20229;-82
2022/12/25 14:34:46;;;;;;;22.10;11.40;;;9.70;99.90;;;;;;5066156;28;20256;-83
2022/12/25 14:37:18;;;;;;;17.50;11.77;;;9.70;99.90;;;;;;5063593;28;20213;-82
2022/12/25 14:39:46;;;;;;;16.30;11.57;;;9.70;99.90;;;;;;5063950;28;20208;-82
2022/12/25 14:42:21;;;;;;;18.33;11.00;;;9.70;99.90;;;;;;5064218;28;20206;-82
2022/12/25 14:45:23;;;;;;;22.93;11.53;;;9.80;99.90;;;;;;5064941;28;20201;-82
2022/12/25 14:47:51;;;;;;;24.37;12.23;;;9.80;99.90;;;;;;5064554;28;20177;-82
2022/12/25 14:50:38;;;;;;;18.97;11.87;;;9.80;99.90;;;;;;5063852;28;20250;-82
2022/12/25 14:53:15;;;;;;;18.30;10.83;;;9.80;99.90;;;;;;5064338;28;20720;-82
2022/12/25 14:55:55;;;;;;;18.97;12.13;;;9.90;99.90;;;;;;5062947;28;20170;-82
2022/12/25 14:58:24;;;;;;;19.10;11.63;;;9.80;99.90;;;;;;5063108;28;20197;-82
2022/12/25 15:00:59;;;;;;;16.70;11.03;;;9.90;99.90;;;;;;5064230;28;20251;-82
2022/12/25 15:03:45;;;;;;;18.47;12.33;;;10.00;99.90;;;;;;5063046;28;20280;-82
2022/12/25 15:06:23;;;;;;;18.17;12.37;;;10.00;99.90;;;;;;5064783;28;20254;-82